createdAt,value
2018-01-19T00:00:33.401Z,2.70
2018-01-19T00:03:00.885Z,2.80
2018-01-19T00:05:29.112Z,2.70
2018-01-19T00:07:56.585Z,2.70
2018-01-19T00:10:24.048Z,2.70
2018-01-19T00:12:51.529Z,2.70
2018-01-19T00:15:19.756Z,2.60
2018-01-19T00:17:47.224Z,2.60
2018-01-19T00:20:14.700Z,2.60
2018-01-19T00:22:42.833Z,2.70
2018-01-19T00:25:10.310Z,2.70
2018-01-19T00:27:37.772Z,2.60
2018-01-19T00:30:05.247Z,2.60
2018-01-19T00:32:32.703Z,2.60
2018-01-19T00:35:00.176Z,2.50
2018-01-19T00:37:28.409Z,2.40
2018-01-19T00:39:55.889Z,2.40
2018-01-19T00:42:23.348Z,2.30
2018-01-19T00:44:50.821Z,2.20
2018-01-19T00:47:18.275Z,2.10
2018-01-19T00:49:45.765Z,2.00
2018-01-19T00:52:13.228Z,1.90
2018-01-19T00:54:40.696Z,1.90
2018-01-19T00:57:08.164Z,1.90
2018-01-19T00:59:35.641Z,1.90
2018-01-19T01:02:03.116Z,1.90
2018-01-19T01:04:30.579Z,1.80
2018-01-19T01:06:58.060Z,1.80
2018-01-19T01:09:26.292Z,1.80
2018-01-19T01:11:53.765Z,1.80
2018-01-19T01:14:21.226Z,1.70
2018-01-19T01:16:48.700Z,1.60
2018-01-19T01:19:16.160Z,1.60
2018-01-19T01:21:44.396Z,1.70
2018-01-19T01:24:11.865Z,1.60
2018-01-19T01:26:39.329Z,1.70
2018-01-19T01:29:08.313Z,1.70
2018-01-19T01:31:35.776Z,1.70
2018-01-19T01:34:03.252Z,1.70
2018-01-19T01:36:30.761Z,1.70
2018-01-19T01:38:58.236Z,1.70
2018-01-19T01:41:25.701Z,1.70
2018-01-19T01:43:53.197Z,1.70
2018-01-19T01:46:21.432Z,1.80
2018-01-19T01:49:00.806Z,1.80
2018-01-19T01:51:28.269Z,1.80
2018-01-19T01:53:56.501Z,1.80
2018-01-19T01:56:23.976Z,1.80
2018-01-19T01:58:51.452Z,1.80
2018-01-19T02:01:18.921Z,1.80
2018-01-19T02:03:47.148Z,1.80
2018-01-19T02:06:14.630Z,1.80
2018-01-19T02:08:42.096Z,1.70
2018-01-19T02:11:09.656Z,1.80
2018-01-19T02:13:37.128Z,1.70
2018-01-19T02:16:04.605Z,1.70
2018-01-19T02:18:32.836Z,1.40
2018-01-19T02:21:00.317Z,1.30
2018-01-19T02:23:27.785Z,1.30
2018-01-19T02:25:56.020Z,1.00
2018-01-19T02:28:23.505Z,0.90
2018-01-19T02:30:50.973Z,0.90
2018-01-19T02:33:19.220Z,0.80
2018-01-19T02:35:47.453Z,0.70
2018-01-19T02:38:14.941Z,0.70
2018-01-19T02:40:42.419Z,0.70
2018-01-19T02:43:09.909Z,0.60
2018-01-19T02:45:38.144Z,0.70
2018-01-19T02:48:05.615Z,0.70
2018-01-19T02:50:33.093Z,0.70
2018-01-19T02:53:00.568Z,0.70
2018-01-19T02:55:28.804Z,0.80
2018-01-19T02:57:56.288Z,0.80
2018-01-19T03:00:24.524Z,0.90
2018-01-19T03:02:52.004Z,0.80
2018-01-19T03:05:19.471Z,0.90
2018-01-19T03:07:47.741Z,1.00
2018-01-19T03:10:15.212Z,1.00
2018-01-19T03:12:42.681Z,1.00
2018-01-19T03:15:10.932Z,1.00
2018-01-19T03:17:38.410Z,1.00
2018-01-19T03:20:06.664Z,1.10
2018-01-19T03:22:34.133Z,1.10
2018-01-19T03:25:01.613Z,1.10
2018-01-19T03:27:29.088Z,1.10
2018-01-19T03:32:30.382Z,1.20
2018-01-19T03:34:57.892Z,1.30
2018-01-19T03:37:26.157Z,1.30
2018-01-19T03:39:53.647Z,1.30
2018-01-19T03:42:21.124Z,1.30
2018-01-19T03:44:48.598Z,1.30
2018-01-19T03:47:16.072Z,1.30
2018-01-19T03:49:43.555Z,1.30
2018-01-19T03:52:11.828Z,1.30
2018-01-19T03:54:39.292Z,1.30
2018-01-19T03:57:07.527Z,1.20
2018-01-19T03:59:35.000Z,1.20
2018-01-19T04:02:02.481Z,1.20
2018-01-19T04:04:29.948Z,1.20
2018-01-19T04:06:58.189Z,1.20
2018-01-19T04:09:25.656Z,1.20
2018-01-19T04:11:53.149Z,1.30
2018-01-19T04:14:21.381Z,1.60
2018-01-19T04:16:48.848Z,1.60
2018-01-19T04:19:16.332Z,1.60
2018-01-19T04:21:44.569Z,1.70
2018-01-19T04:24:12.049Z,1.70
2018-01-19T04:26:39.522Z,1.70
2018-01-19T04:29:07.767Z,1.70
2018-01-19T04:31:35.236Z,1.70
2018-01-19T04:34:02.713Z,1.70
2018-01-19T04:36:30.948Z,1.70
2018-01-19T04:38:58.428Z,1.60
2018-01-19T04:41:25.907Z,1.60
2018-01-19T04:43:54.148Z,1.60
2018-01-19T04:46:21.634Z,1.60
2018-01-19T04:48:49.096Z,1.60
2018-01-19T04:51:17.353Z,1.60
2018-01-19T04:53:44.825Z,1.60
2018-01-19T04:56:12.314Z,1.60
2018-01-19T04:58:39.780Z,1.60
2018-01-19T05:01:07.254Z,1.60
2018-01-19T05:03:34.728Z,1.60
2018-01-19T05:06:02.197Z,1.60
2018-01-19T05:08:29.668Z,1.60
2018-01-19T05:10:57.132Z,1.60
2018-01-19T05:13:24.611Z,1.70
2018-01-19T05:15:52.852Z,1.70
2018-01-19T05:18:20.348Z,1.70
2018-01-19T05:20:48.580Z,1.70
2018-01-19T05:23:16.057Z,1.70
2018-01-19T05:25:43.535Z,1.70
2018-01-19T05:28:11.764Z,1.70
2018-01-19T05:30:39.245Z,1.70
2018-01-19T05:33:06.711Z,1.70
2018-01-19T05:35:34.185Z,1.70
2018-01-19T05:38:02.424Z,1.60
2018-01-19T05:40:30.669Z,1.60
2018-01-19T05:42:58.165Z,1.60
2018-01-19T05:45:25.637Z,1.50
2018-01-19T05:47:53.116Z,1.50
2018-01-19T05:50:21.356Z,1.40
2018-01-19T05:52:48.825Z,1.30
2018-01-19T05:55:16.320Z,1.30
2018-01-19T05:57:43.785Z,1.30
2018-01-19T06:00:11.254Z,1.40
2018-01-19T06:02:38.724Z,1.40
2018-01-19T06:05:06.964Z,1.40
2018-01-19T06:07:34.444Z,1.40
2018-01-19T06:10:01.923Z,1.40
2018-01-19T06:12:29.401Z,1.40
2018-01-19T06:14:56.872Z,1.40
2018-01-19T06:17:24.352Z,1.40
2018-01-19T06:19:52.584Z,1.40
2018-01-19T06:22:20.075Z,1.40
2018-01-19T06:24:47.545Z,1.30
2018-01-19T06:27:15.783Z,1.00
2018-01-19T06:29:43.263Z,1.00
2018-01-19T06:32:11.505Z,0.80
2018-01-19T06:34:38.988Z,0.80
2018-01-19T06:37:06.464Z,0.80
2018-01-19T06:39:34.716Z,0.70
2018-01-19T06:42:02.194Z,0.70
2018-01-19T06:44:30.440Z,0.70
2018-01-19T06:46:57.908Z,0.70
2018-01-19T06:49:25.385Z,0.70
2018-01-19T06:51:52.852Z,0.60
2018-01-19T06:54:20.324Z,0.60
2018-01-19T06:56:47.807Z,0.60
2018-01-19T06:59:15.283Z,0.60
2018-01-19T07:01:42.774Z,0.60
2018-01-19T07:04:10.257Z,0.50
2018-01-19T07:06:38.496Z,0.60
2018-01-19T07:09:05.973Z,0.60
2018-01-19T07:11:33.456Z,0.60
2018-01-19T07:14:00.937Z,0.60
2018-01-19T07:16:28.425Z,0.60
2018-01-19T07:18:55.905Z,0.70
2018-01-19T07:21:23.377Z,0.80
2018-01-19T07:23:51.624Z,1.10
2018-01-19T07:26:19.093Z,1.00
2018-01-19T07:28:46.576Z,1.10
2018-01-19T07:31:14.237Z,1.20
2018-01-19T07:33:41.764Z,1.30
2018-01-19T07:36:09.232Z,1.30
2018-01-19T07:38:36.712Z,1.30
2018-01-19T07:41:04.185Z,1.40
2018-01-19T07:43:31.667Z,1.40
2018-01-19T07:45:59.132Z,1.50
2018-01-19T07:48:26.624Z,1.50
2018-01-19T07:50:54.991Z,1.50
2018-01-19T07:53:22.463Z,1.50
2018-01-19T07:55:49.950Z,1.50
2018-01-19T07:58:17.412Z,1.60
2018-01-19T08:00:44.897Z,1.60
2018-01-19T08:03:12.369Z,1.60
2018-01-19T08:05:39.861Z,1.60
2018-01-19T08:08:08.093Z,1.60
2018-01-19T08:10:35.589Z,1.60
2018-01-19T08:13:03.052Z,1.70
2018-01-19T08:15:31.289Z,1.60
2018-01-19T08:17:58.766Z,1.60
2018-01-19T08:20:26.233Z,1.60
2018-01-19T08:22:53.740Z,1.60
2018-01-19T08:25:21.205Z,1.70
2018-01-19T08:27:48.683Z,1.70
2018-01-19T08:30:16.148Z,1.70
2018-01-19T08:32:43.625Z,1.70
2018-01-19T08:35:11.092Z,1.70
2018-01-19T08:37:38.579Z,1.70
2018-01-19T08:40:06.047Z,1.60
2018-01-19T08:42:33.525Z,1.60
2018-01-19T08:45:00.992Z,1.70
2018-01-19T08:47:28.490Z,1.60
2018-01-19T08:49:56.733Z,1.70
2018-01-19T08:52:24.201Z,1.70
2018-01-19T08:54:51.685Z,1.80
2018-01-19T08:57:19.920Z,1.70
2018-01-19T08:59:47.401Z,1.70
2018-01-19T09:02:14.868Z,1.70
2018-01-19T09:04:42.340Z,1.70
2018-01-19T09:07:10.576Z,1.80
2018-01-19T09:09:38.057Z,1.80
2018-01-19T09:12:05.528Z,1.90
2018-01-19T09:14:33.009Z,1.90
2018-01-19T09:17:00.485Z,1.90
2018-01-19T09:19:27.974Z,1.90
2018-01-19T09:21:55.440Z,1.90
2018-01-19T09:24:22.908Z,2.00
2018-01-19T09:26:50.384Z,1.90
2018-01-19T09:29:18.621Z,2.00
2018-01-19T09:31:46.112Z,2.00
2018-01-19T09:34:14.340Z,2.10
2018-01-19T09:36:41.825Z,2.10
2018-01-19T09:39:09.291Z,2.10
2018-01-19T09:41:36.760Z,2.10
2018-01-19T09:44:04.988Z,2.20
2018-01-19T09:46:32.472Z,2.20
2018-01-19T09:48:59.941Z,2.20
2018-01-19T09:51:27.421Z,2.30
2018-01-19T09:53:55.654Z,2.30
2018-01-19T09:56:23.126Z,2.30
2018-01-19T09:58:50.596Z,2.40
2018-01-19T10:01:18.060Z,2.40
2018-01-19T10:03:46.300Z,2.40
2018-01-19T10:06:13.768Z,2.40
2018-01-19T10:08:41.247Z,2.30
2018-01-19T10:11:08.718Z,2.30
2018-01-19T10:13:36.961Z,2.40
2018-01-19T10:16:04.436Z,2.40
2018-01-19T10:18:31.933Z,2.40
2018-01-19T10:20:59.396Z,2.40
2018-01-19T10:23:26.873Z,2.50
2018-01-19T10:25:55.071Z,2.50
2018-01-19T10:28:22.565Z,2.60
2018-01-19T10:30:50.804Z,2.60
2018-01-19T10:33:18.272Z,2.60
2018-01-19T10:35:45.748Z,2.60
2018-01-19T10:38:13.979Z,2.50
2018-01-19T10:40:41.457Z,2.50
2018-01-19T10:43:08.924Z,2.60
2018-01-19T10:45:36.400Z,2.60
2018-01-19T10:48:04.640Z,2.60
2018-01-19T10:50:32.124Z,2.60
2018-01-19T10:52:59.588Z,2.60
2018-01-19T10:55:27.829Z,2.60
2018-01-19T10:57:55.327Z,2.60
2018-01-19T11:00:22.785Z,2.70
2018-01-19T11:02:51.030Z,2.70
2018-01-19T11:05:18.488Z,2.70
2018-01-19T11:07:45.968Z,2.70
2018-01-19T11:10:13.428Z,2.90
2018-01-19T11:12:40.901Z,3.10
2018-01-19T11:15:09.137Z,3.30
2018-01-19T11:17:36.624Z,3.30
2018-01-19T11:20:04.089Z,3.30
2018-01-19T11:22:32.337Z,3.00
2018-01-19T11:24:59.812Z,3.00
2018-01-19T11:27:27.272Z,3.10
2018-01-19T11:29:54.745Z,3.10
2018-01-19T11:32:22.217Z,3.00
2018-01-19T11:34:49.685Z,3.00
2018-01-19T11:37:17.152Z,3.00
2018-01-19T11:39:44.625Z,3.00
2018-01-19T11:42:12.088Z,3.10
2018-01-19T11:44:39.573Z,3.00
2018-01-19T11:47:07.066Z,3.10
2018-01-19T11:49:35.276Z,3.30
2018-01-19T11:52:02.753Z,3.20
2018-01-19T11:54:30.222Z,3.30
2018-01-19T11:56:57.698Z,3.30
2018-01-19T11:59:25.927Z,3.30
2018-01-19T12:01:53.409Z,3.30
2018-01-19T12:04:20.868Z,3.20
2018-01-19T12:06:48.340Z,3.20
2018-01-19T12:09:15.805Z,3.20
2018-01-19T12:11:44.045Z,3.10
2018-01-19T12:14:11.508Z,3.10
2018-01-19T12:16:38.984Z,3.10
2018-01-19T12:19:06.448Z,3.10
2018-01-19T12:21:33.928Z,3.20
2018-01-19T12:24:02.164Z,3.30
2018-01-19T12:26:29.622Z,3.30
2018-01-19T12:28:57.104Z,3.30
2018-01-19T12:31:24.569Z,3.40
2018-01-19T12:33:52.932Z,3.40
2018-01-19T12:36:20.400Z,3.40
2018-01-19T12:38:47.865Z,3.40
2018-01-19T12:41:16.328Z,3.50
2018-01-19T12:43:43.806Z,3.50
2018-01-19T12:46:12.028Z,3.60
2018-01-19T12:48:39.521Z,3.50
2018-01-19T12:51:06.981Z,3.50
2018-01-19T12:53:34.453Z,3.60
2018-01-19T12:56:02.714Z,3.70
2018-01-19T12:58:30.176Z,3.60
2018-01-19T13:00:57.653Z,3.70
2018-01-19T13:03:25.888Z,4.00
2018-01-19T13:05:53.363Z,4.00
2018-01-19T13:08:20.825Z,4.00
2018-01-19T13:10:48.308Z,3.70
2018-01-19T13:13:16.545Z,3.60
2018-01-19T13:15:44.061Z,3.50
2018-01-19T13:18:11.540Z,3.50
2018-01-19T13:20:39.294Z,3.40
2018-01-19T13:23:06.773Z,3.40
2018-01-19T13:25:34.238Z,3.30
2018-01-19T13:28:01.708Z,3.40
2018-01-19T13:30:29.180Z,3.40
2018-01-19T13:32:56.661Z,3.30
2018-01-19T13:35:24.129Z,3.30
2018-01-19T13:37:51.606Z,3.30
2018-01-19T13:40:19.089Z,3.30
2018-01-19T13:42:46.581Z,3.40
2018-01-19T13:45:14.813Z,3.30
2018-01-19T13:47:42.302Z,3.30
2018-01-19T13:50:09.765Z,3.40
2018-01-19T13:52:37.232Z,3.30
2018-01-19T13:55:05.477Z,3.30
2018-01-19T13:57:32.945Z,3.30
2018-01-19T14:00:00.421Z,3.40
2018-01-19T14:02:28.658Z,3.40
2018-01-19T14:04:56.133Z,3.40
2018-01-19T14:07:23.607Z,3.50
2018-01-19T14:09:51.088Z,3.50
2018-01-19T14:12:18.553Z,3.40
2018-01-19T14:14:46.021Z,3.50
2018-01-19T14:17:13.492Z,3.60
2018-01-19T14:19:40.965Z,3.70
2018-01-19T14:22:08.442Z,3.80
2018-01-19T14:24:35.904Z,3.80
2018-01-19T14:27:03.372Z,3.90
2018-01-19T14:29:30.840Z,3.90
2018-01-19T14:31:59.088Z,4.00
2018-01-19T14:34:26.557Z,4.00
2018-01-19T14:36:54.055Z,4.00
2018-01-19T14:39:21.515Z,3.90
2018-01-19T14:41:49.000Z,3.90
2018-01-19T14:44:16.469Z,3.90
2018-01-19T14:46:43.940Z,3.90
2018-01-19T14:49:11.416Z,3.80
2018-01-19T14:51:38.923Z,3.70
2018-01-19T14:54:06.529Z,3.80
2018-01-19T14:56:34.001Z,3.70
2018-01-19T14:59:02.520Z,3.70
2018-01-19T15:01:29.983Z,3.60
2018-01-19T15:03:57.457Z,3.60
2018-01-19T15:06:24.932Z,3.50
2018-01-19T15:08:52.408Z,3.50
2018-01-19T15:11:19.872Z,3.50
2018-01-19T15:13:48.133Z,3.40
2018-01-19T15:16:15.595Z,3.40
2018-01-19T15:18:43.061Z,3.30
2018-01-19T15:21:10.541Z,3.30
2018-01-19T15:23:38.776Z,3.20
2018-01-19T15:26:06.257Z,3.20
2018-01-19T15:28:33.728Z,3.10
2018-01-19T15:31:01.978Z,3.00
2018-01-19T15:33:29.449Z,3.00
2018-01-19T15:35:56.929Z,3.00
2018-01-19T15:38:24.392Z,2.90
2018-01-19T15:40:51.873Z,2.90
2018-01-19T15:43:19.346Z,2.90
2018-01-19T15:45:46.817Z,2.90
2018-01-19T15:48:14.297Z,2.90
2018-01-19T15:50:41.768Z,2.80
2018-01-19T15:53:10.017Z,2.80
2018-01-19T15:55:37.489Z,2.80
2018-01-19T15:58:04.969Z,2.70
2018-01-19T16:00:33.206Z,2.60
2018-01-19T16:03:00.676Z,2.60
2018-01-19T16:05:28.147Z,2.50
2018-01-19T16:07:56.392Z,2.60
2018-01-19T16:10:23.857Z,2.60
2018-01-19T16:12:51.322Z,2.60
2018-01-19T16:15:18.802Z,2.60
2018-01-19T16:17:47.872Z,2.60
2018-01-19T16:20:15.349Z,2.60
2018-01-19T16:22:42.822Z,2.70
2018-01-19T16:25:11.066Z,2.70
2018-01-19T16:27:38.532Z,2.70
2018-01-19T16:30:06.008Z,2.60
2018-01-19T16:32:34.241Z,2.50
2018-01-19T16:35:01.722Z,2.50
2018-01-19T16:37:29.193Z,2.60
2018-01-19T16:39:56.672Z,2.60
2018-01-19T16:42:24.134Z,2.60
2018-01-19T16:44:51.593Z,2.60
2018-01-19T16:47:19.062Z,2.60
2018-01-19T16:49:46.528Z,2.70
2018-01-19T16:52:13.996Z,2.60
2018-01-19T16:54:41.470Z,2.60
2018-01-19T16:57:09.713Z,2.70
2018-01-19T16:59:37.215Z,2.70
2018-01-19T17:02:04.689Z,2.70
2018-01-19T17:04:32.157Z,2.70
2018-01-19T17:07:00.404Z,2.70
2018-01-19T17:09:41.585Z,2.70
2018-01-19T17:12:09.060Z,2.60
2018-01-19T17:14:36.538Z,2.50
2018-01-19T17:17:05.118Z,2.40
2018-01-19T17:19:32.580Z,2.40
2018-01-19T17:22:00.833Z,2.40
2018-01-19T17:24:28.296Z,2.40
2018-01-19T17:26:55.764Z,2.50
2018-01-19T17:29:24.005Z,2.50
2018-01-19T17:31:51.472Z,2.50
2018-01-19T17:34:19.196Z,2.50
2018-01-19T17:36:46.669Z,2.40
2018-01-19T17:39:14.144Z,2.50
2018-01-19T17:41:41.610Z,2.50
2018-01-19T17:44:09.080Z,2.50
2018-01-19T17:46:36.545Z,2.50
2018-01-19T17:49:04.088Z,2.50
2018-01-19T17:51:31.553Z,2.50
2018-01-19T17:53:59.012Z,2.40
2018-01-19T17:56:26.493Z,2.40
2018-01-19T17:58:54.742Z,2.50
2018-01-19T18:01:22.208Z,2.50
2018-01-19T18:03:49.673Z,2.60
2018-01-19T18:06:17.149Z,2.60
2018-01-19T18:08:45.376Z,2.60
2018-01-19T18:11:12.853Z,2.60
2018-01-19T18:13:40.327Z,2.60
2018-01-19T18:16:07.856Z,2.60
2018-01-19T18:18:35.293Z,2.60
2018-01-19T18:21:02.773Z,2.70
2018-01-19T18:23:31.006Z,2.70
2018-01-19T18:25:58.494Z,2.70
2018-01-19T18:28:25.961Z,2.70
2018-01-19T18:30:53.433Z,2.60
2018-01-19T18:33:20.900Z,2.60
2018-01-19T18:35:48.365Z,2.70
2018-01-19T18:38:15.841Z,2.70
2018-01-19T18:40:44.072Z,2.60
2018-01-19T18:43:11.590Z,2.60
2018-01-19T18:45:39.065Z,2.70
2018-01-19T18:48:06.536Z,2.70
2018-01-19T18:50:34.001Z,2.60
2018-01-19T18:53:01.471Z,2.60
2018-01-19T18:55:28.973Z,2.60
2018-01-19T18:57:57.236Z,2.60
2018-01-19T19:00:25.526Z,2.60
2018-01-19T19:02:53.755Z,2.60
2018-01-19T19:05:21.274Z,2.50
2018-01-19T19:07:48.752Z,2.60
2018-01-19T19:10:16.280Z,2.60
2018-01-19T19:12:44.505Z,2.50
2018-01-19T19:15:12.037Z,2.50
2018-01-19T19:17:39.552Z,2.60
2018-01-19T19:20:07.063Z,2.50
2018-01-19T19:22:34.583Z,2.50
2018-01-19T19:25:02.876Z,2.50
2018-01-19T19:27:30.353Z,2.50
2018-01-19T19:29:57.870Z,2.50
2018-01-19T19:32:26.100Z,2.50
2018-01-19T19:34:53.640Z,2.50
2018-01-19T19:37:21.161Z,2.50
2018-01-19T19:39:48.651Z,2.40
2018-01-19T19:42:16.924Z,2.40
2018-01-19T19:44:44.443Z,2.30
2018-01-19T19:47:11.964Z,2.30
2018-01-19T19:49:39.471Z,2.30
2018-01-19T19:52:06.945Z,2.30
2018-01-19T19:54:35.271Z,2.30
2018-01-19T19:57:02.717Z,2.30
2018-01-19T19:59:30.232Z,2.30
2018-01-19T20:01:57.752Z,2.30
2018-01-19T20:04:25.272Z,2.30
2018-01-19T20:06:54.321Z,2.40
2018-01-19T20:09:21.788Z,2.40
2018-01-19T20:11:49.303Z,2.40
2018-01-19T20:14:16.768Z,2.40
2018-01-19T20:16:44.287Z,2.40
2018-01-19T20:19:12.533Z,2.40
2018-01-19T20:21:40.004Z,2.30
2018-01-19T20:24:07.517Z,2.20
2018-01-19T20:26:34.987Z,2.10
2018-01-19T20:29:02.516Z,2.00
2018-01-19T20:31:30.041Z,2.00
2018-01-19T20:33:57.558Z,1.90
2018-01-19T20:36:25.029Z,1.90
2018-01-19T20:38:52.516Z,1.90
2018-01-19T20:41:19.984Z,2.00
2018-01-19T20:43:48.272Z,2.00
2018-01-19T20:46:16.517Z,1.90
2018-01-19T20:48:44.028Z,1.90
2018-01-19T20:51:11.505Z,1.90
2018-01-19T20:53:38.966Z,1.90
2018-01-19T20:56:06.445Z,1.90
2018-01-19T20:58:33.912Z,1.80
2018-01-19T21:01:01.428Z,1.80
2018-01-19T21:03:28.891Z,1.80
2018-01-19T21:05:56.388Z,1.70
2018-01-19T21:08:23.860Z,1.70
2018-01-19T21:10:51.381Z,1.70
2018-01-19T21:13:18.856Z,1.60
2018-01-19T21:15:46.370Z,1.60
2018-01-19T21:18:13.887Z,1.60
2018-01-19T21:20:41.361Z,1.60
2018-01-19T21:23:08.836Z,1.60
2018-01-19T21:25:36.312Z,1.60
2018-01-19T21:28:03.789Z,1.60
2018-01-19T21:30:31.311Z,1.60
2018-01-19T21:32:59.608Z,1.60
2018-01-19T21:35:27.122Z,1.60
2018-01-19T21:37:54.656Z,1.50
2018-01-19T21:40:22.176Z,1.50
2018-01-19T21:42:49.705Z,1.50
2018-01-19T21:45:17.275Z,1.40
2018-01-19T21:47:44.772Z,1.40
2018-01-19T21:50:12.287Z,1.40
2018-01-19T21:52:39.748Z,1.40
2018-01-19T21:55:08.000Z,1.40
2018-01-19T21:57:35.516Z,1.40
2018-01-19T22:00:03.044Z,1.40
2018-01-19T22:02:31.328Z,1.50
2018-01-19T22:04:59.576Z,1.50
2018-01-19T22:07:27.091Z,1.50
2018-01-19T22:09:54.619Z,1.50
2018-01-19T22:12:22.844Z,1.40
2018-01-19T22:14:50.369Z,1.40
2018-01-19T22:17:18.646Z,1.40
2018-01-19T22:19:46.873Z,1.40
2018-01-19T22:22:14.348Z,1.40
2018-01-19T22:24:41.858Z,1.40
2018-01-19T22:27:09.374Z,1.50
2018-01-19T22:29:36.875Z,1.50
2018-01-19T22:32:04.349Z,1.60
2018-01-19T22:34:31.856Z,1.60
2018-01-19T22:37:00.159Z,1.70
2018-01-19T22:56:54.600Z,1.70
2018-01-19T22:59:22.125Z,1.70
2018-01-19T23:01:49.633Z,1.80
2018-01-19T23:04:17.167Z,1.80
2018-01-19T23:06:44.670Z,1.80
2018-01-19T23:09:12.142Z,1.80
2018-01-19T23:11:40.386Z,1.80
2018-01-19T23:14:07.902Z,1.80
2018-01-19T23:16:35.416Z,1.80
2018-01-19T23:19:02.892Z,1.80
2018-01-19T23:21:31.175Z,1.80
2018-01-19T23:23:59.402Z,1.80
2018-01-19T23:26:26.928Z,1.80
2018-01-19T23:28:54.440Z,1.80
2018-01-19T23:31:21.960Z,1.80
2018-01-19T23:33:49.430Z,1.80
2018-01-19T23:36:16.977Z,1.80
2018-01-19T23:38:44.491Z,1.90
2018-01-19T23:41:11.948Z,1.80
2018-01-19T23:43:39.417Z,1.80
2018-01-19T23:46:07.700Z,1.80
2018-01-19T23:48:35.984Z,1.90
2018-01-19T23:51:04.493Z,1.80
2018-01-19T23:53:31.964Z,1.80
2018-01-19T23:55:59.433Z,1.90
2018-01-19T23:58:26.916Z,1.90
